createdAt,value
2022-09-28T00:00:29.547Z,10.50
2022-09-28T00:03:32.757Z,10.50
2022-09-28T00:06:35.967Z,10.60
2022-09-28T00:09:40.680Z,10.60
2022-09-28T00:12:43.942Z,10.60
2022-09-28T00:15:47.100Z,10.60
2022-09-28T00:18:51.405Z,10.70
2022-09-28T00:21:54.755Z,10.70
2022-09-28T00:24:59.478Z,10.70
2022-09-28T00:28:02.955Z,10.80
2022-09-28T00:31:06.516Z,10.70
2022-09-28T00:34:09.818Z,10.80
2022-09-28T00:37:14.572Z,10.90
2022-09-28T00:40:19.619Z,10.80
2022-09-28T00:43:24.359Z,10.90
2022-09-28T00:46:32.166Z,10.90
2022-09-28T00:49:41.840Z,10.90
2022-09-28T00:52:49.811Z,10.90
2022-09-28T00:55:58.177Z,11.00
2022-09-28T00:59:04.727Z,11.00
2022-09-28T01:07:17.867Z,11.00
2022-09-28T01:33:44.082Z,10.80
2022-09-28T01:41:17.889Z,10.50
2022-09-28T01:44:24.929Z,10.50
2022-09-28T01:47:35.161Z,10.50
2022-09-28T01:50:43.017Z,10.40
2022-09-28T01:53:50.449Z,10.40
2022-09-28T01:56:59.476Z,10.50
2022-09-28T02:00:06.622Z,10.40
2022-09-28T02:03:35.569Z,10.40
2022-09-28T02:06:46.261Z,10.40
2022-09-28T02:09:55.226Z,10.40
2022-09-28T02:13:02.591Z,10.40
2022-09-28T02:16:11.714Z,10.40
2022-09-28T02:19:17.054Z,10.30
2022-09-28T02:22:28.239Z,10.20
2022-09-28T02:25:36.091Z,10.10
2022-09-28T02:28:39.934Z,10.10
2022-09-28T02:31:43.790Z,10.10
2022-09-28T02:34:47.340Z,10.00
2022-09-28T02:37:52.331Z,9.90
2022-09-28T02:41:03.787Z,9.90
2022-09-28T02:44:16.771Z,9.90
2022-09-28T02:47:29.659Z,9.90
2022-09-28T02:50:44.021Z,9.80
2022-09-28T02:54:02.247Z,9.80
2022-09-28T02:57:14.295Z,9.80
2022-09-28T03:00:21.778Z,9.80
2022-09-28T03:03:35.490Z,9.80
2022-09-28T03:06:45.044Z,9.80
2022-09-28T03:09:56.840Z,9.80
2022-09-28T03:13:00.804Z,9.70
2022-09-28T03:16:10.348Z,9.70
2022-09-28T03:19:14.970Z,9.70
2022-09-28T03:22:18.248Z,9.70
2022-09-28T03:25:22.965Z,9.70
2022-09-28T03:28:26.480Z,9.60
2022-09-28T03:31:29.720Z,9.60
2022-09-28T03:34:33.308Z,9.60
2022-09-28T03:37:37.169Z,9.60
2022-09-28T03:40:42.882Z,9.50
2022-09-28T03:43:46.366Z,9.50
2022-09-28T03:46:50.526Z,9.50
2022-09-28T03:49:53.732Z,9.50
2022-09-28T03:52:57.097Z,9.40
2022-09-28T03:56:07.293Z,9.40
2022-09-28T03:59:10.506Z,9.40
2022-09-28T04:02:13.961Z,9.40
2022-09-28T04:05:18.875Z,9.40
2022-09-28T04:08:22.380Z,9.40
2022-09-28T04:11:42.835Z,9.40
2022-09-28T04:14:52.514Z,9.30
2022-09-28T04:17:56.139Z,9.30
2022-09-28T04:21:20.983Z,9.40
2022-09-28T04:24:33.800Z,9.40
2022-09-28T04:27:55.704Z,9.40
2022-09-28T04:30:59.117Z,9.40
2022-09-28T04:34:02.418Z,9.40
2022-09-28T04:37:05.807Z,9.40
2022-09-28T04:40:12.670Z,9.40
2022-09-28T04:43:17.583Z,9.40
2022-09-28T04:46:21.297Z,9.40
2022-09-28T04:49:43.260Z,9.40
2022-09-28T04:53:02.335Z,9.40
2022-09-28T04:56:08.812Z,9.40
2022-09-28T04:59:14.118Z,9.40
2022-09-28T05:02:18.719Z,9.50
2022-09-28T05:05:47.873Z,9.50
2022-09-28T05:09:06.586Z,9.50
2022-09-28T05:12:10.585Z,9.50
2022-09-28T05:15:16.020Z,9.60
2022-09-28T05:18:19.322Z,9.60
2022-09-28T05:21:29.954Z,9.60
2022-09-28T05:24:33.185Z,9.60
2022-09-28T05:27:36.647Z,9.60
2022-09-28T05:30:45.602Z,9.60
2022-09-28T05:34:17.943Z,9.70
2022-09-28T05:37:22.004Z,9.80
2022-09-28T05:40:25.420Z,9.80
2022-09-28T05:43:28.841Z,9.90
2022-09-28T05:46:33.456Z,9.90
2022-09-28T05:49:38.114Z,9.90
2022-09-28T05:52:41.315Z,10.00
2022-09-28T05:55:45.913Z,10.00
2022-09-28T05:58:50.073Z,10.10
2022-09-28T06:01:57.282Z,10.10
2022-09-28T06:05:00.942Z,10.10
2022-09-28T06:08:05.735Z,10.20
2022-09-28T06:11:12.817Z,10.20
2022-09-28T06:14:16.239Z,10.20
2022-09-28T06:17:20.987Z,10.30
2022-09-28T06:20:36.471Z,10.50
2022-09-28T06:23:53.588Z,10.70
2022-09-28T06:26:57.144Z,10.90
2022-09-28T06:30:00.837Z,11.00
2022-09-28T06:33:06.850Z,11.00
2022-09-28T06:36:10.787Z,11.20
2022-09-28T06:39:14.503Z,11.30
2022-09-28T06:42:18.670Z,11.40
2022-09-28T06:45:53.280Z,11.40
2022-09-28T06:49:09.248Z,11.40
2022-09-28T06:52:30.847Z,11.20
2022-09-28T06:55:48.529Z,10.90
2022-09-28T06:58:51.744Z,10.80
2022-09-28T07:01:55.852Z,10.80
2022-09-28T07:05:36.808Z,10.80
2022-09-28T07:09:29.960Z,10.90
2022-09-28T07:12:59.316Z,11.00
2022-09-28T07:16:09.595Z,11.00
2022-09-28T07:19:14.441Z,11.20
2022-09-28T07:22:26.543Z,11.50
2022-09-28T07:25:41.074Z,11.70
2022-09-28T07:28:58.533Z,11.90
2022-09-28T07:32:14.208Z,12.20
2022-09-28T07:35:53.327Z,12.10
2022-09-28T07:38:59.934Z,12.20
2022-09-28T07:42:03.572Z,12.00
2022-09-28T07:45:08.668Z,12.00
2022-09-28T07:51:38.983Z,11.90
2022-09-28T07:55:06.572Z,11.60
2022-09-28T07:58:32.854Z,11.40
2022-09-28T08:01:56.390Z,11.50
2022-09-28T08:04:59.872Z,11.70
2022-09-28T08:08:04.281Z,11.80
2022-09-28T08:11:10.488Z,11.90
2022-09-28T08:14:33.628Z,12.00
2022-09-28T08:18:02.621Z,12.00
2022-09-28T08:21:25.193Z,12.30
2022-09-28T08:24:31.009Z,12.60
2022-09-28T08:27:36.222Z,12.80
2022-09-28T08:30:40.898Z,12.60
2022-09-28T08:33:53.091Z,12.60
2022-09-28T08:37:31.612Z,12.50
2022-09-28T08:41:04.976Z,12.40
2022-09-28T08:44:40.587Z,12.50
2022-09-28T08:48:09.658Z,12.60
2022-09-28T08:51:32.783Z,12.90
2022-09-28T08:55:05.609Z,13.20
2022-09-28T08:58:19.649Z,13.50
2022-09-28T09:01:27.663Z,13.80
2022-09-28T09:04:34.540Z,13.80
2022-09-28T09:08:03.873Z,13.90
2022-09-28T09:11:17.068Z,13.50
2022-09-28T09:14:38.095Z,13.40
2022-09-28T09:17:52.283Z,13.30
2022-09-28T09:21:23.474Z,13.30
2022-09-28T09:24:28.681Z,13.40
2022-09-28T09:27:47.771Z,13.50
2022-09-28T09:30:59.087Z,13.30
2022-09-28T09:34:35.288Z,13.50
2022-09-28T09:38:10.638Z,13.70
2022-09-28T09:41:46.852Z,13.80
2022-09-28T09:45:26.881Z,14.20
2022-09-28T09:48:54.219Z,14.60
2022-09-28T09:52:02.299Z,14.70
2022-09-28T09:55:16.443Z,15.00
2022-09-28T09:58:32.467Z,15.00
2022-09-28T10:01:53.526Z,14.80
2022-09-28T10:05:08.871Z,14.60
2022-09-28T10:08:19.022Z,14.50
2022-09-28T10:11:28.305Z,14.60
2022-09-28T10:14:32.464Z,14.90
2022-09-28T10:17:40.002Z,14.40
2022-09-28T10:21:14.148Z,14.10
2022-09-28T10:24:33.182Z,12.90
2022-09-28T10:27:40.780Z,11.70
2022-09-28T10:30:44.748Z,10.90
2022-09-28T10:33:48.287Z,10.50
2022-09-28T10:36:56.029Z,10.50
2022-09-28T10:40:01.835Z,10.50
2022-09-28T10:43:24.056Z,10.50
2022-09-28T10:46:30.687Z,10.60
2022-09-28T10:49:46.567Z,11.00
2022-09-28T10:52:51.111Z,11.40
2022-09-28T10:56:23.768Z,11.30
2022-09-28T10:59:40.247Z,11.10
2022-09-28T11:03:00.678Z,11.10
2022-09-28T11:06:07.017Z,11.60
2022-09-28T11:09:30.864Z,12.50
2022-09-28T11:12:45.470Z,13.60
2022-09-28T11:15:50.260Z,14.20
2022-09-28T11:19:07.761Z,15.00
2022-09-28T11:22:26.232Z,15.20
2022-09-28T11:25:35.697Z,15.80
2022-09-28T11:28:43.236Z,16.70
2022-09-28T11:31:55.157Z,17.10
2022-09-28T11:35:01.490Z,16.40
2022-09-28T11:38:19.819Z,15.10
2022-09-28T11:41:55.354Z,14.50
2022-09-28T11:45:11.583Z,14.00
2022-09-28T11:48:18.314Z,13.80
2022-09-28T11:51:26.596Z,13.60
2022-09-28T11:54:38.124Z,13.30
2022-09-28T11:57:46.018Z,13.20
2022-09-28T12:00:55.685Z,13.30
2022-09-28T12:04:13.281Z,13.20
2022-09-28T12:07:23.304Z,13.20
2022-09-28T12:10:31.499Z,13.90
2022-09-28T12:13:40.200Z,15.30
2022-09-28T12:17:05.817Z,15.70
2022-09-28T12:20:20.100Z,15.50
2022-09-28T12:23:30.681Z,15.30
2022-09-28T12:26:40.487Z,15.40
2022-09-28T12:29:48.593Z,15.00
2022-09-28T12:32:59.660Z,14.70
2022-09-28T12:36:14.160Z,14.30
2022-09-28T12:39:53.424Z,14.00
2022-09-28T12:43:22.295Z,14.00
2022-09-28T12:47:05.763Z,14.10
2022-09-28T12:50:53.934Z,13.90
2022-09-28T12:54:08.618Z,14.10
2022-09-28T12:57:41.364Z,14.30
2022-09-28T13:01:08.350Z,14.10
2022-09-28T13:04:39.311Z,13.70
2022-09-28T13:07:50.889Z,14.10
2022-09-28T13:11:07.993Z,14.50
2022-09-28T13:14:33.934Z,14.60
2022-09-28T13:17:50.073Z,15.30
2022-09-28T13:21:07.382Z,15.70
2022-09-28T13:24:31.797Z,15.80
2022-09-28T13:27:39.785Z,16.40
2022-09-28T13:30:47.683Z,16.10
2022-09-28T13:33:52.615Z,16.00
2022-09-28T13:37:25.532Z,15.40
2022-09-28T13:41:12.720Z,15.00
2022-09-28T13:45:04.123Z,15.10
2022-09-28T13:48:20.526Z,15.50
2022-09-28T13:51:38.175Z,15.90
2022-09-28T13:55:13.781Z,15.90
2022-09-28T13:58:22.709Z,15.50
2022-09-28T14:01:31.073Z,15.10
2022-09-28T14:04:57.259Z,14.70
2022-09-28T14:08:31.956Z,14.70
2022-09-28T14:11:45.434Z,15.10
2022-09-28T14:14:52.184Z,15.30
2022-09-28T14:18:11.586Z,15.60
2022-09-28T14:21:37.143Z,15.70
2022-09-28T14:24:57.036Z,15.70
2022-09-28T14:28:14.823Z,15.50
2022-09-28T14:31:26.946Z,15.40
2022-09-28T14:34:37.891Z,15.50
2022-09-28T14:38:12.815Z,15.90
2022-09-28T14:41:31.332Z,16.30
2022-09-28T14:45:15.927Z,16.40
2022-09-28T14:48:44.848Z,16.30
2022-09-28T14:52:11.783Z,15.70
2022-09-28T14:55:21.476Z,15.30
2022-09-28T14:58:28.836Z,15.00
2022-09-28T15:01:32.641Z,15.00
2022-09-28T15:04:43.533Z,14.70
2022-09-28T15:07:50.734Z,14.50
2022-09-28T15:10:54.180Z,14.20
2022-09-28T15:14:08.495Z,14.00
2022-09-28T15:17:14.953Z,13.70
2022-09-28T15:20:25.226Z,13.30
2022-09-28T15:23:35.217Z,13.10
2022-09-28T15:26:38.640Z,12.80
2022-09-28T15:29:42.031Z,12.60
2022-09-28T15:32:45.402Z,12.30
2022-09-28T15:35:58.388Z,12.10
2022-09-28T15:39:06.946Z,11.80
2022-09-28T15:42:11.390Z,11.60
2022-09-28T15:45:30.814Z,11.40
2022-09-28T15:48:46.506Z,11.20
2022-09-28T15:51:56.869Z,11.00
2022-09-28T15:55:01.712Z,10.80
2022-09-28T15:58:17.230Z,10.70
2022-09-28T16:01:38.082Z,10.40
2022-09-28T16:04:50.434Z,10.30
2022-09-28T16:07:56.412Z,10.10
2022-09-28T16:11:10.975Z,9.90
2022-09-28T16:14:20.458Z,9.70
2022-09-28T16:17:33.027Z,9.60
2022-09-28T16:20:38.774Z,9.40
2022-09-28T16:23:43.960Z,9.20
2022-09-28T16:26:49.324Z,9.10
2022-09-28T16:30:15.755Z,9.00
2022-09-28T16:33:29.916Z,9.00
2022-09-28T16:36:43.462Z,9.00
2022-09-28T16:39:48.257Z,9.00
2022-09-28T16:42:52.204Z,8.90
2022-09-28T16:45:58.211Z,8.90
2022-09-28T16:49:03.142Z,8.90
2022-09-28T16:52:12.740Z,8.90
2022-09-28T16:55:39.325Z,8.80
2022-09-28T16:58:40.156Z,8.60
2022-09-28T17:01:43.984Z,8.60
2022-09-28T17:04:47.912Z,8.50
2022-09-28T17:08:01.344Z,8.40
2022-09-28T17:11:15.744Z,8.50
2022-09-28T17:14:23.449Z,8.50
2022-09-28T17:17:29.940Z,8.30
2022-09-28T17:20:35.516Z,8.30
2022-09-28T17:23:38.852Z,8.20
2022-09-28T17:26:44.923Z,8.30
2022-09-28T17:29:48.410Z,8.30
2022-09-28T17:32:52.322Z,8.40
2022-09-28T17:36:04.913Z,8.40
2022-09-28T17:39:11.716Z,8.50
2022-09-28T17:42:17.301Z,8.60
2022-09-28T17:45:20.893Z,8.70
2022-09-28T17:48:24.581Z,8.80
2022-09-28T17:51:30.154Z,8.80
2022-09-28T17:54:35.142Z,8.90
2022-09-28T17:57:41.017Z,8.90
2022-09-28T18:00:46.103Z,9.00
2022-09-28T18:03:51.859Z,9.10
2022-09-28T18:06:57.888Z,9.20
2022-09-28T18:10:02.344Z,9.20
2022-09-28T18:13:08.828Z,9.30
2022-09-28T18:16:12.921Z,9.40
2022-09-28T18:19:16.706Z,9.50
2022-09-28T18:22:20.289Z,9.80
2022-09-28T18:25:24.433Z,9.90
2022-09-28T18:28:29.757Z,10.00
2022-09-28T18:31:33.988Z,10.10
2022-09-28T18:34:39.358Z,10.20
2022-09-28T18:37:43.506Z,10.20
2022-09-28T18:40:48.419Z,10.20
2022-09-28T18:44:00.181Z,10.20
2022-09-28T18:47:03.984Z,10.20
2022-09-28T18:50:08.606Z,10.20
2022-09-28T18:53:14.980Z,10.20
2022-09-28T18:56:21.536Z,10.20
2022-09-28T18:59:27.111Z,10.20
2022-09-28T19:02:30.976Z,10.10
2022-09-28T19:05:35.312Z,10.00
2022-09-28T19:08:39.321Z,10.00
2022-09-28T19:11:43.115Z,10.00
2022-09-28T19:14:48.215Z,9.90
2022-09-28T19:17:52.441Z,9.70
2022-09-28T19:20:57.387Z,9.60
2022-09-28T19:24:03.273Z,9.50
2022-09-28T19:27:07.453Z,9.30
2022-09-28T19:30:13.858Z,9.30
2022-09-28T19:33:17.610Z,9.30
2022-09-28T19:36:23.809Z,9.30
2022-09-28T19:39:27.343Z,9.40
2022-09-28T19:42:31.294Z,9.50
2022-09-28T19:45:39.832Z,9.50
2022-09-28T19:48:43.523Z,9.50
2022-09-28T19:52:11.493Z,9.50
2022-09-28T19:55:12.870Z,9.50
2022-09-28T19:58:16.318Z,9.50
2022-09-28T20:01:21.269Z,9.60
2022-09-28T20:04:26.028Z,9.70
2022-09-28T20:07:33.407Z,9.80
2022-09-28T20:10:36.754Z,9.90
2022-09-28T20:14:01.066Z,10.00
2022-09-28T20:17:07.215Z,10.10
2022-09-28T20:20:10.941Z,10.20
2022-09-28T20:23:14.540Z,10.30
2022-09-28T20:26:19.114Z,10.30
2022-09-28T20:29:24.316Z,10.40
2022-09-28T20:32:27.863Z,10.40
2022-09-28T20:35:33.354Z,10.40
2022-09-28T20:38:40.482Z,10.40
2022-09-28T20:41:46.082Z,10.40
2022-09-28T20:44:51.091Z,10.40
2022-09-28T20:47:54.465Z,10.30
2022-09-28T20:51:03.114Z,10.30
2022-09-28T20:54:06.774Z,10.20
2022-09-28T20:57:19.479Z,10.10
2022-09-28T21:00:24.266Z,10.00
2022-09-28T21:03:27.531Z,9.90
2022-09-28T21:06:32.101Z,9.80
2022-09-28T21:09:35.726Z,9.70
2022-09-28T21:12:40.227Z,9.60
2022-09-28T21:15:44.877Z,9.70
2022-09-28T21:18:49.406Z,9.80
2022-09-28T21:21:52.691Z,9.80
2022-09-28T21:24:55.891Z,9.80
2022-09-28T21:27:59.206Z,9.80
2022-09-28T21:31:05.480Z,9.80
2022-09-28T21:34:12.469Z,9.90
2022-09-28T21:37:15.814Z,9.90
2022-09-28T21:40:20.422Z,10.00
2022-09-28T21:43:23.827Z,10.00
2022-09-28T21:46:34.111Z,9.90
2022-09-28T21:49:37.970Z,10.00
2022-09-28T21:52:41.433Z,9.90
2022-09-28T21:55:45.887Z,9.90
2022-09-28T21:58:49.188Z,9.80
2022-09-28T22:01:54.077Z,9.80
2022-09-28T22:04:58.056Z,9.80
2022-09-28T22:08:01.754Z,9.70
2022-09-28T22:11:06.826Z,9.70
2022-09-28T22:14:11.618Z,9.70
2022-09-28T22:17:16.725Z,9.60
2022-09-28T22:20:20.263Z,9.60
2022-09-28T22:23:23.458Z,9.50
2022-09-28T22:26:27.720Z,9.50
2022-09-28T22:29:31.177Z,9.40
2022-09-28T22:32:35.988Z,9.50
2022-09-28T22:35:39.175Z,9.50
2022-09-28T22:38:42.619Z,9.50
2022-09-28T22:41:46.209Z,9.50
2022-09-28T22:44:49.845Z,9.50
2022-09-28T22:47:54.590Z,9.40
2022-09-28T22:50:57.793Z,9.40
2022-09-28T22:54:01.308Z,9.40
2022-09-28T22:57:05.203Z,9.40
2022-09-28T23:00:09.783Z,9.50
2022-09-28T23:03:14.541Z,9.50
2022-09-28T23:06:19.090Z,9.60
2022-09-28T23:09:22.281Z,9.60
2022-09-28T23:12:25.810Z,9.70
2022-09-28T23:15:29.579Z,9.70
2022-09-28T23:18:35.854Z,9.70
2022-09-28T23:21:39.648Z,9.70
2022-09-28T23:24:42.978Z,9.80
2022-09-28T23:27:47.392Z,9.80
2022-09-28T23:30:51.437Z,9.80
2022-09-28T23:34:00.179Z,9.80
2022-09-28T23:37:03.460Z,9.90
2022-09-28T23:40:08.117Z,9.90
2022-09-28T23:43:11.370Z,9.80
2022-09-28T23:46:20.312Z,9.80
2022-09-28T23:49:25.409Z,9.80
2022-09-28T23:52:28.754Z,9.70
2022-09-28T23:55:32.140Z,9.70
2022-09-28T23:58:35.364Z,9.60
